Главная страница
METAR-TAF:

METAR-TAF

Аэропорты :

Борнхольм

Рённе, Дания

широта: 55-04N, долгота: 014-45E, высота над уровнем моря: 16 м

Текущие метеонаблюдения

Эта сводка был подготовлена 21 минут назад, в 06:50 UTC
Ветер 9 Узел от южный-юго-западный, изменяющийся между южный и западный-юго-западный
Температура 7°C
Влажность 81%
Давление 1017 hPa
Видимость 10 км и более

METAR: EKRN 170650Z AUTO 20009KT 170V250 9999 NCD 07/04 Q1017

Время: 08:11 (07:11 UTC)

Прогноз

Эта сводка был подготовлена 13 часа и 37 минут назад, в 17:34 UTC
Прогноз действительный с 16-го 18 UTC до 16-го 23 UTC
Ветер 20 Узел от юго-западный
Видимость 10 км и более
Сплошная облачность на высоте 1500 фута
временами
С 16-го 18 UTC до 16-го 23 UTC
Ветер 25 Узел от юго-западный с порывами до 38 Узел
Рассеянная облачность на высоте 1200 фута

TAF: EKRN 161734Z 1618/1623 22020KT 9999 OVC015 TEMPO 1618/1623 22025G38KT BKN012

Метеонаблюдения и прогнозы для более 4000 аэропортов (сводки METAR и TAF).

Имеющиеся станции представлены на карте желтыми и красными точками.

Чтобы увидеть название станции, наведите на нее мышь.

Затем щелкните, чтобы увидеть метеонаблюдения и метеопрогнозы.

Управление картой: чтобы увеличить масштаб, щелкните зеленые кнопки с черным крестиком; чтобы уменьшить масштаб, щелкните зеленую кнопку с тире; для просмотра соседних карт щелкайте зеленые стрелки.


METAR-TAF: